Terminal Aerodrome Forecast
Issued by NWS

Home | Current Version | Previous Version | Graphics & Text | Print | Product List | Glossary On
Versions: 1 2 3 4 5 6 7 8 9 10 11 12 13 14 15 16
000
FTUS43 KICT 150522
TAFHUT
TAF
KHUT 150522Z 1506/1606 33010KT P6SM SCT060
     FM150800 32007KT P6SM FEW250
     FM151400 27006KT P6SM FEW250
     FM151700 24013KT P6SM SKC=

USA.gov is the U.S. government's official web portal to all federal, state and local government web resources and services.